sensor_id;sensor_type;location;lat;lon;timestamp;P1;durP1;ratioP1;P2;durP2;ratioP2
13672;SDS011;6909;52.202;9.876;2022-12-18T00:02:26;6.50;;;1.70;;
13672;SDS011;6909;52.202;9.876;2022-12-18T00:04:53;2.03;;;1.73;;
13672;SDS011;6909;52.202;9.876;2022-12-18T00:07:20;3.83;;;1.70;;
13672;SDS011;6909;52.202;9.876;2022-12-18T00:09:47;2.73;;;2.50;;
13672;SDS011;6909;52.202;9.876;2022-12-18T00:12:13;1.47;;;1.27;;
13672;SDS011;6909;52.202;9.876;2022-12-18T00:14:40;2.17;;;1.93;;
13672;SDS011;6909;52.202;9.876;2022-12-18T00:17:08;3.90;;;1.63;;
13672;SDS011;6909;52.202;9.876;2022-12-18T00:19:35;4.27;;;2.10;;
13672;SDS011;6909;52.202;9.876;2022-12-18T00:22:02;4.00;;;1.73;;
13672;SDS011;6909;52.202;9.876;2022-12-18T00:24:29;7.40;;;3.33;;
13672;SDS011;6909;52.202;9.876;2022-12-18T00:26:55;1.87;;;1.73;;
13672;SDS011;6909;52.202;9.876;2022-12-18T00:29:22;2.30;;;2.10;;
13672;SDS011;6909;52.202;9.876;2022-12-18T00:31:49;5.27;;;2.03;;
13672;SDS011;6909;52.202;9.876;2022-12-18T00:34:17;3.33;;;1.57;;
13672;SDS011;6909;52.202;9.876;2022-12-18T00:36:43;2.40;;;1.47;;
13672;SDS011;6909;52.202;9.876;2022-12-18T00:39:13;2.17;;;1.97;;
13672;SDS011;6909;52.202;9.876;2022-12-18T00:41:40;2.47;;;2.27;;
13672;SDS011;6909;52.202;9.876;2022-12-18T00:44:24;1.50;;;1.40;;
13672;SDS011;6909;52.202;9.876;2022-12-18T00:46:54;2.63;;;1.97;;
13672;SDS011;6909;52.202;9.876;2022-12-18T00:49:22;5.07;;;2.67;;
13672;SDS011;6909;52.202;9.876;2022-12-18T00:51:49;2.03;;;1.87;;
13672;SDS011;6909;52.202;9.876;2022-12-18T00:54:15;1.13;;;1.03;;
13672;SDS011;6909;52.202;9.876;2022-12-18T00:56:43;5.83;;;2.20;;
13672;SDS011;6909;52.202;9.876;2022-12-18T00:59:09;2.57;;;1.93;;
13672;SDS011;6909;52.202;9.876;2022-12-18T01:01:36;2.00;;;1.50;;
13672;SDS011;6909;52.202;9.876;2022-12-18T01:04:03;2.67;;;1.37;;
13672;SDS011;6909;52.202;9.876;2022-12-18T01:06:32;2.13;;;2.03;;
13672;SDS011;6909;52.202;9.876;2022-12-18T01:09:01;5.70;;;2.23;;
13672;SDS011;6909;52.202;9.876;2022-12-18T01:11:27;1.90;;;1.77;;
13672;SDS011;6909;52.202;9.876;2022-12-18T01:13:54;2.37;;;2.13;;
13672;SDS011;6909;52.202;9.876;2022-12-18T01:16:22;1.93;;;1.67;;
13672;SDS011;6909;52.202;9.876;2022-12-18T01:18:51;0.87;;;0.83;;
13672;SDS011;6909;52.202;9.876;2022-12-18T01:21:19;1.60;;;0.97;;
13672;SDS011;6909;52.202;9.876;2022-12-18T01:23:50;5.50;;;2.17;;
13672;SDS011;6909;52.202;9.876;2022-12-18T01:26:17;3.53;;;1.97;;
13672;SDS011;6909;52.202;9.876;2022-12-18T01:28:44;2.93;;;1.60;;
13672;SDS011;6909;52.202;9.876;2022-12-18T01:31:12;2.47;;;1.23;;
13672;SDS011;6909;52.202;9.876;2022-12-18T01:33:40;1.77;;;1.20;;
13672;SDS011;6909;52.202;9.876;2022-12-18T01:36:07;7.47;;;1.60;;
13672;SDS011;6909;52.202;9.876;2022-12-18T01:38:34;3.93;;;1.43;;
13672;SDS011;6909;52.202;9.876;2022-12-18T01:41:02;2.60;;;1.53;;
13672;SDS011;6909;52.202;9.876;2022-12-18T01:43:42;1.60;;;1.50;;
13672;SDS011;6909;52.202;9.876;2022-12-18T01:46:11;3.67;;;1.27;;
13672;SDS011;6909;52.202;9.876;2022-12-18T01:48:38;2.00;;;1.20;;
13672;SDS011;6909;52.202;9.876;2022-12-18T01:51:05;2.87;;;2.30;;
13672;SDS011;6909;52.202;9.876;2022-12-18T01:53:33;0.57;;;0.57;;
13672;SDS011;6909;52.202;9.876;2022-12-18T01:56:03;3.30;;;2.50;;
13672;SDS011;6909;52.202;9.876;2022-12-18T01:58:35;1.83;;;1.50;;
13672;SDS011;6909;52.202;9.876;2022-12-18T02:01:07;1.53;;;1.27;;
13672;SDS011;6909;52.202;9.876;2022-12-18T02:03:34;3.90;;;1.77;;
13672;SDS011;6909;52.202;9.876;2022-12-18T02:06:03;1.00;;;0.93;;
13672;SDS011;6909;52.202;9.876;2022-12-18T02:08:38;1.23;;;0.93;;
13672;SDS011;6909;52.202;9.876;2022-12-18T02:11:15;2.97;;;1.93;;
13672;SDS011;6909;52.202;9.876;2022-12-18T02:13:50;1.17;;;1.07;;
13672;SDS011;6909;52.202;9.876;2022-12-18T02:16:23;1.63;;;0.43;;
13672;SDS011;6909;52.202;9.876;2022-12-18T02:18:56;0.73;;;0.73;;
13672;SDS011;6909;52.202;9.876;2022-12-18T02:21:28;1.10;;;0.90;;
13672;SDS011;6909;52.202;9.876;2022-12-18T02:24:04;1.57;;;0.77;;
13672;SDS011;6909;52.202;9.876;2022-12-18T02:26:44;1.53;;;1.07;;
13672;SDS011;6909;52.202;9.876;2022-12-18T02:29:15;2.30;;;1.10;;
13672;SDS011;6909;52.202;9.876;2022-12-18T02:31:47;1.00;;;0.90;;
13672;SDS011;6909;52.202;9.876;2022-12-18T02:34:18;1.00;;;0.67;;
13672;SDS011;6909;52.202;9.876;2022-12-18T02:36:47;0.70;;;0.63;;
13672;SDS011;6909;52.202;9.876;2022-12-18T02:39:15;4.03;;;1.00;;
13672;SDS011;6909;52.202;9.876;2022-12-18T02:41:44;1.30;;;1.30;;
13672;SDS011;6909;52.202;9.876;2022-12-18T02:44:12;1.53;;;1.00;;
13672;SDS011;6909;52.202;9.876;2022-12-18T02:46:39;2.83;;;1.23;;
13672;SDS011;6909;52.202;9.876;2022-12-18T02:49:14;2.30;;;0.47;;
13672;SDS011;6909;52.202;9.876;2022-12-18T02:51:51;1.20;;;1.03;;
13672;SDS011;6909;52.202;9.876;2022-12-18T02:54:23;3.43;;;1.23;;
13672;SDS011;6909;52.202;9.876;2022-12-18T02:57:03;2.43;;;1.07;;
13672;SDS011;6909;52.202;9.876;2022-12-18T02:59:37;3.13;;;0.80;;
13672;SDS011;6909;52.202;9.876;2022-12-18T03:02:07;4.47;;;2.13;;
13672;SDS011;6909;52.202;9.876;2022-12-18T03:04:46;3.90;;;2.03;;
13672;SDS011;6909;52.202;9.876;2022-12-18T03:07:16;1.20;;;1.10;;
13672;SDS011;6909;52.202;9.876;2022-12-18T03:09:48;1.63;;;1.43;;
13672;SDS011;6909;52.202;9.876;2022-12-18T03:12:18;1.27;;;0.97;;
13672;SDS011;6909;52.202;9.876;2022-12-18T03:14:49;1.93;;;1.50;;
13672;SDS011;6909;52.202;9.876;2022-12-18T03:17:22;1.93;;;1.67;;
13672;SDS011;6909;52.202;9.876;2022-12-18T03:19:51;1.80;;;1.00;;
13672;SDS011;6909;52.202;9.876;2022-12-18T03:22:22;2.17;;;1.13;;
13672;SDS011;6909;52.202;9.876;2022-12-18T03:24:53;3.53;;;0.57;;
13672;SDS011;6909;52.202;9.876;2022-12-18T03:27:23;3.90;;;1.60;;
13672;SDS011;6909;52.202;9.876;2022-12-18T03:29:54;1.40;;;0.80;;
13672;SDS011;6909;52.202;9.876;2022-12-18T03:32:33;1.47;;;1.37;;
13672;SDS011;6909;52.202;9.876;2022-12-18T03:35:05;0.80;;;0.50;;
13672;SDS011;6909;52.202;9.876;2022-12-18T03:37:34;1.10;;;1.10;;
13672;SDS011;6909;52.202;9.876;2022-12-18T03:40:01;2.20;;;0.80;;
13672;SDS011;6909;52.202;9.876;2022-12-18T03:42:31;0.57;;;0.43;;
13672;SDS011;6909;52.202;9.876;2022-12-18T03:45:05;1.50;;;0.80;;
13672;SDS011;6909;52.202;9.876;2022-12-18T03:47:36;1.60;;;0.70;;
13672;SDS011;6909;52.202;9.876;2022-12-18T03:50:10;0.93;;;0.77;;
13672;SDS011;6909;52.202;9.876;2022-12-18T03:52:41;3.20;;;1.23;;
13672;SDS011;6909;52.202;9.876;2022-12-18T03:55:12;0.50;;;0.50;;
13672;SDS011;6909;52.202;9.876;2022-12-18T03:57:40;0.67;;;0.67;;
13672;SDS011;6909;52.202;9.876;2022-12-18T04:00:09;1.80;;;0.83;;
13672;SDS011;6909;52.202;9.876;2022-12-18T04:02:39;1.00;;;0.93;;
13672;SDS011;6909;52.202;9.876;2022-12-18T04:05:09;2.43;;;1.07;;
13672;SDS011;6909;52.202;9.876;2022-12-18T04:07:38;1.60;;;1.50;;
13672;SDS011;6909;52.202;9.876;2022-12-18T04:10:06;0.87;;;0.87;;
13672;SDS011;6909;52.202;9.876;2022-12-18T04:12:36;4.63;;;1.30;;
13672;SDS011;6909;52.202;9.876;2022-12-18T04:15:06;0.83;;;0.73;;
13672;SDS011;6909;52.202;9.876;2022-12-18T04:17:34;2.97;;;1.53;;
13672;SDS011;6909;52.202;9.876;2022-12-18T04:20:02;1.33;;;1.07;;
13672;SDS011;6909;52.202;9.876;2022-12-18T04:22:29;1.47;;;1.27;;
13672;SDS011;6909;52.202;9.876;2022-12-18T04:24:56;1.10;;;0.50;;
13672;SDS011;6909;52.202;9.876;2022-12-18T04:27:23;1.33;;;1.23;;
13672;SDS011;6909;52.202;9.876;2022-12-18T04:29:49;0.80;;;0.80;;
13672;SDS011;6909;52.202;9.876;2022-12-18T04:32:17;1.33;;;1.17;;
13672;SDS011;6909;52.202;9.876;2022-12-18T04:34:44;1.93;;;0.87;;
13672;SDS011;6909;52.202;9.876;2022-12-18T04:37:11;8.50;;;1.33;;
13672;SDS011;6909;52.202;9.876;2022-12-18T04:39:38;1.10;;;1.00;;
13672;SDS011;6909;52.202;9.876;2022-12-18T04:42:04;0.60;;;0.40;;
13672;SDS011;6909;52.202;9.876;2022-12-18T04:44:33;2.10;;;1.20;;
13672;SDS011;6909;52.202;9.876;2022-12-18T04:47:00;2.87;;;1.37;;
13672;SDS011;6909;52.202;9.876;2022-12-18T04:49:28;1.63;;;1.23;;
13672;SDS011;6909;52.202;9.876;2022-12-18T04:51:55;0.97;;;0.97;;
13672;SDS011;6909;52.202;9.876;2022-12-18T04:54:22;0.93;;;0.67;;
13672;SDS011;6909;52.202;9.876;2022-12-18T04:56:48;2.47;;;1.03;;
13672;SDS011;6909;52.202;9.876;2022-12-18T04:59:15;2.70;;;1.27;;
13672;SDS011;6909;52.202;9.876;2022-12-18T05:01:42;1.20;;;1.07;;
13672;SDS011;6909;52.202;9.876;2022-12-18T05:04:09;6.73;;;1.10;;
13672;SDS011;6909;52.202;9.876;2022-12-18T05:06:37;3.67;;;1.77;;
13672;SDS011;6909;52.202;9.876;2022-12-18T05:09:04;0.70;;;0.70;;
13672;SDS011;6909;52.202;9.876;2022-12-18T05:11:33;2.37;;;1.00;;
13672;SDS011;6909;52.202;9.876;2022-12-18T05:14:00;1.83;;;0.77;;
13672;SDS011;6909;52.202;9.876;2022-12-18T05:16:26;1.13;;;0.83;;
13672;SDS011;6909;52.202;9.876;2022-12-18T05:18:53;1.13;;;1.03;;
13672;SDS011;6909;52.202;9.876;2022-12-18T05:21:20;3.13;;;0.57;;
13672;SDS011;6909;52.202;9.876;2022-12-18T05:23:48;0.87;;;0.73;;
13672;SDS011;6909;52.202;9.876;2022-12-18T05:26:16;1.50;;;1.07;;
13672;SDS011;6909;52.202;9.876;2022-12-18T05:28:44;1.27;;;1.17;;
13672;SDS011;6909;52.202;9.876;2022-12-18T05:31:11;1.77;;;0.77;;
13672;SDS011;6909;52.202;9.876;2022-12-18T05:33:38;1.37;;;1.27;;
13672;SDS011;6909;52.202;9.876;2022-12-18T05:36:06;1.10;;;0.60;;
13672;SDS011;6909;52.202;9.876;2022-12-18T05:38:35;2.03;;;1.17;;
13672;SDS011;6909;52.202;9.876;2022-12-18T05:41:05;1.80;;;1.57;;
13672;SDS011;6909;52.202;9.876;2022-12-18T05:43:33;4.23;;;0.90;;
13672;SDS011;6909;52.202;9.876;2022-12-18T05:46:03;0.70;;;0.70;;
13672;SDS011;6909;52.202;9.876;2022-12-18T05:48:30;1.13;;;0.70;;
13672;SDS011;6909;52.202;9.876;2022-12-18T05:51:02;1.37;;;1.17;;
13672;SDS011;6909;52.202;9.876;2022-12-18T05:53:30;0.27;;;0.27;;
13672;SDS011;6909;52.202;9.876;2022-12-18T05:55:59;3.83;;;1.50;;
13672;SDS011;6909;52.202;9.876;2022-12-18T05:58:28;1.27;;;0.90;;
13672;SDS011;6909;52.202;9.876;2022-12-18T06:01:05;0.87;;;0.87;;
13672;SDS011;6909;52.202;9.876;2022-12-18T06:03:33;1.93;;;0.60;;
13672;SDS011;6909;52.202;9.876;2022-12-18T06:06:00;2.47;;;1.67;;
13672;SDS011;6909;52.202;9.876;2022-12-18T06:08:27;1.27;;;0.73;;
13672;SDS011;6909;52.202;9.876;2022-12-18T06:10:54;2.33;;;1.97;;
13672;SDS011;6909;52.202;9.876;2022-12-18T06:13:20;2.90;;;1.03;;
13672;SDS011;6909;52.202;9.876;2022-12-18T06:15:50;2.23;;;0.97;;
13672;SDS011;6909;52.202;9.876;2022-12-18T06:18:16;1.23;;;0.53;;
13672;SDS011;6909;52.202;9.876;2022-12-18T06:20:43;1.50;;;1.40;;
13672;SDS011;6909;52.202;9.876;2022-12-18T06:23:10;1.53;;;0.47;;
13672;SDS011;6909;52.202;9.876;2022-12-18T06:25:37;0.57;;;0.57;;
13672;SDS011;6909;52.202;9.876;2022-12-18T06:28:05;1.47;;;0.77;;
13672;SDS011;6909;52.202;9.876;2022-12-18T06:30:32;1.57;;;0.97;;
13672;SDS011;6909;52.202;9.876;2022-12-18T06:33:00;1.07;;;0.40;;
13672;SDS011;6909;52.202;9.876;2022-12-18T06:35:26;0.57;;;0.57;;
13672;SDS011;6909;52.202;9.876;2022-12-18T06:37:53;0.87;;;0.87;;
13672;SDS011;6909;52.202;9.876;2022-12-18T06:40:20;6.17;;;0.90;;
13672;SDS011;6909;52.202;9.876;2022-12-18T06:42:47;0.60;;;0.60;;
13672;SDS011;6909;52.202;9.876;2022-12-18T06:45:15;1.47;;;0.90;;
13672;SDS011;6909;52.202;9.876;2022-12-18T06:47:42;0.40;;;0.40;;
13672;SDS011;6909;52.202;9.876;2022-12-18T06:50:10;0.23;;;0.23;;
13672;SDS011;6909;52.202;9.876;2022-12-18T06:52:37;1.33;;;0.83;;
13672;SDS011;6909;52.202;9.876;2022-12-18T06:55:05;1.20;;;1.10;;
13672;SDS011;6909;52.202;9.876;2022-12-18T06:57:34;1.10;;;1.03;;
13672;SDS011;6909;52.202;9.876;2022-12-18T07:00:00;1.50;;;0.63;;
13672;SDS011;6909;52.202;9.876;2022-12-18T07:02:27;1.30;;;0.67;;
13672;SDS011;6909;52.202;9.876;2022-12-18T07:04:54;1.97;;;0.37;;
13672;SDS011;6909;52.202;9.876;2022-12-18T07:07:22;1.63;;;0.97;;
13672;SDS011;6909;52.202;9.876;2022-12-18T07:09:49;0.63;;;0.63;;
13672;SDS011;6909;52.202;9.876;2022-12-18T07:12:16;0.97;;;0.80;;
13672;SDS011;6909;52.202;9.876;2022-12-18T07:14:44;2.87;;;0.93;;
13672;SDS011;6909;52.202;9.876;2022-12-18T07:17:11;1.23;;;0.70;;
13672;SDS011;6909;52.202;9.876;2022-12-18T07:19:37;2.20;;;0.67;;
13672;SDS011;6909;52.202;9.876;2022-12-18T07:22:04;2.00;;;1.67;;
13672;SDS011;6909;52.202;9.876;2022-12-18T07:24:33;1.30;;;0.50;;
13672;SDS011;6909;52.202;9.876;2022-12-18T07:27:00;4.53;;;1.03;;
13672;SDS011;6909;52.202;9.876;2022-12-18T07:29:27;0.97;;;0.90;;
13672;SDS011;6909;52.202;9.876;2022-12-18T07:31:53;0.87;;;0.47;;
13672;SDS011;6909;52.202;9.876;2022-12-18T07:34:20;0.40;;;0.30;;
13672;SDS011;6909;52.202;9.876;2022-12-18T07:36:47;3.40;;;1.17;;
13672;SDS011;6909;52.202;9.876;2022-12-18T07:39:16;0.90;;;0.77;;
13672;SDS011;6909;52.202;9.876;2022-12-18T07:41:44;0.30;;;0.30;;
13672;SDS011;6909;52.202;9.876;2022-12-18T07:44:31;0.87;;;0.47;;
13672;SDS011;6909;52.202;9.876;2022-12-18T07:46:58;0.53;;;0.30;;
13672;SDS011;6909;52.202;9.876;2022-12-18T07:49:25;2.53;;;0.57;;
13672;SDS011;6909;52.202;9.876;2022-12-18T07:55:13;0.10;;;0.10;;
13672;SDS011;6909;52.202;9.876;2022-12-18T07:57:41;1.00;;;0.93;;
13672;SDS011;6909;52.202;9.876;2022-12-18T08:03:27;1.90;;;0.40;;
13672;SDS011;6909;52.202;9.876;2022-12-18T08:05:57;0.67;;;0.63;;
13672;SDS011;6909;52.202;9.876;2022-12-18T08:08:25;1.77;;;0.90;;
13672;SDS011;6909;52.202;9.876;2022-12-18T08:10:52;0.83;;;0.83;;
13672;SDS011;6909;52.202;9.876;2022-12-18T08:13:20;1.20;;;1.07;;
13672;SDS011;6909;52.202;9.876;2022-12-18T08:15:54;0.90;;;0.90;;
13672;SDS011;6909;52.202;9.876;2022-12-18T08:18:22;6.20;;;1.50;;
13672;SDS011;6909;52.202;9.876;2022-12-18T08:20:49;1.70;;;1.37;;
13672;SDS011;6909;52.202;9.876;2022-12-18T08:23:16;1.93;;;1.73;;
13672;SDS011;6909;52.202;9.876;2022-12-18T08:25:42;1.40;;;0.67;;
13672;SDS011;6909;52.202;9.876;2022-12-18T08:28:10;1.33;;;0.87;;
13672;SDS011;6909;52.202;9.876;2022-12-18T08:30:38;1.53;;;0.90;;
13672;SDS011;6909;52.202;9.876;2022-12-18T08:33:04;1.80;;;0.97;;
13672;SDS011;6909;52.202;9.876;2022-12-18T08:35:34;1.23;;;1.00;;
13672;SDS011;6909;52.202;9.876;2022-12-18T08:38:02;2.17;;;1.03;;
13672;SDS011;6909;52.202;9.876;2022-12-18T08:40:29;1.77;;;0.80;;
13672;SDS011;6909;52.202;9.876;2022-12-18T08:42:56;0.83;;;0.53;;
13672;SDS011;6909;52.202;9.876;2022-12-18T08:45:41;0.47;;;0.40;;
13672;SDS011;6909;52.202;9.876;2022-12-18T08:48:08;1.20;;;0.50;;
13672;SDS011;6909;52.202;9.876;2022-12-18T08:50:35;2.20;;;1.10;;
13672;SDS011;6909;52.202;9.876;2022-12-18T08:53:02;2.27;;;1.07;;
13672;SDS011;6909;52.202;9.876;2022-12-18T08:55:28;1.10;;;1.00;;
13672;SDS011;6909;52.202;9.876;2022-12-18T08:57:55;0.73;;;0.73;;
13672;SDS011;6909;52.202;9.876;2022-12-18T09:00:22;0.80;;;0.80;;
13672;SDS011;6909;52.202;9.876;2022-12-18T09:02:50;2.97;;;0.77;;
13672;SDS011;6909;52.202;9.876;2022-12-18T09:05:17;1.03;;;0.80;;
13672;SDS011;6909;52.202;9.876;2022-12-18T09:07:43;1.57;;;1.10;;
13672;SDS011;6909;52.202;9.876;2022-12-18T09:10:10;3.23;;;0.70;;
13672;SDS011;6909;52.202;9.876;2022-12-18T09:12:37;1.60;;;0.63;;
13672;SDS011;6909;52.202;9.876;2022-12-18T09:15:04;0.67;;;0.53;;
13672;SDS011;6909;52.202;9.876;2022-12-18T09:17:32;2.50;;;1.10;;
13672;SDS011;6909;52.202;9.876;2022-12-18T09:20:00;1.07;;;0.70;;
13672;SDS011;6909;52.202;9.876;2022-12-18T09:22:27;1.87;;;1.00;;
13672;SDS011;6909;52.202;9.876;2022-12-18T09:24:53;0.10;;;0.10;;
13672;SDS011;6909;52.202;9.876;2022-12-18T09:27:20;2.30;;;1.13;;
13672;SDS011;6909;52.202;9.876;2022-12-18T09:29:47;1.30;;;0.57;;
13672;SDS011;6909;52.202;9.876;2022-12-18T09:32:14;0.70;;;0.57;;
13672;SDS011;6909;52.202;9.876;2022-12-18T09:34:41;0.47;;;0.47;;
13672;SDS011;6909;52.202;9.876;2022-12-18T09:37:09;0.10;;;0.10;;
13672;SDS011;6909;52.202;9.876;2022-12-18T09:39:36;3.17;;;0.50;;
13672;SDS011;6909;52.202;9.876;2022-12-18T09:42:03;0.20;;;0.20;;
13672;SDS011;6909;52.202;9.876;2022-12-18T09:44:32;0.60;;;0.60;;
13672;SDS011;6909;52.202;9.876;2022-12-18T09:47:07;0.47;;;0.30;;
13672;SDS011;6909;52.202;9.876;2022-12-18T09:49:39;0.70;;;0.57;;
13672;SDS011;6909;52.202;9.876;2022-12-18T09:52:11;1.47;;;0.93;;
13672;SDS011;6909;52.202;9.876;2022-12-18T09:54:43;0.80;;;0.50;;
13672;SDS011;6909;52.202;9.876;2022-12-18T09:57:13;0.57;;;0.43;;
13672;SDS011;6909;52.202;9.876;2022-12-18T09:59:41;0.63;;;0.50;;
13672;SDS011;6909;52.202;9.876;2022-12-18T10:02:14;1.13;;;0.53;;
13672;SDS011;6909;52.202;9.876;2022-12-18T10:04:42;0.30;;;0.07;;
13672;SDS011;6909;52.202;9.876;2022-12-18T10:07:13;0.70;;;0.70;;
13672;SDS011;6909;52.202;9.876;2022-12-18T10:09:48;5.40;;;0.20;;
13672;SDS011;6909;52.202;9.876;2022-12-18T10:12:24;0.20;;;0.10;;
13672;SDS011;6909;52.202;9.876;2022-12-18T10:14:57;1.20;;;0.60;;
13672;SDS011;6909;52.202;9.876;2022-12-18T10:17:31;1.03;;;0.43;;
13672;SDS011;6909;52.202;9.876;2022-12-18T13:01:41;3.50;;;0.80;;
13672;SDS011;6909;52.202;9.876;2022-12-18T13:04:21;0.83;;;0.43;;
13672;SDS011;6909;52.202;9.876;2022-12-18T13:06:53;1.60;;;1.13;;
13672;SDS011;6909;52.202;9.876;2022-12-18T13:09:25;4.20;;;2.03;;
13672;SDS011;6909;52.202;9.876;2022-12-18T13:11:57;4.17;;;2.83;;
13672;SDS011;6909;52.202;9.876;2022-12-18T13:14:46;1.17;;;0.90;;
13672;SDS011;6909;52.202;9.876;2022-12-18T13:17:30;3.73;;;1.77;;
13672;SDS011;6909;52.202;9.876;2022-12-18T13:20:04;3.03;;;1.77;;
13672;SDS011;6909;52.202;9.876;2022-12-18T13:22:34;3.20;;;1.97;;
13672;SDS011;6909;52.202;9.876;2022-12-18T13:25:03;3.57;;;1.93;;
13672;SDS011;6909;52.202;9.876;2022-12-18T13:30:52;4.23;;;2.20;;
13672;SDS011;6909;52.202;9.876;2022-12-18T13:36:29;4.00;;;3.00;;
13672;SDS011;6909;52.202;9.876;2022-12-18T13:39:11;3.67;;;1.73;;
13672;SDS011;6909;52.202;9.876;2022-12-18T13:41:53;4.80;;;2.50;;
13672;SDS011;6909;52.202;9.876;2022-12-18T13:44:54;2.10;;;1.17;;
13672;SDS011;6909;52.202;9.876;2022-12-18T13:47:25;3.40;;;1.93;;
13672;SDS011;6909;52.202;9.876;2022-12-18T13:49:59;2.10;;;1.50;;
13672;SDS011;6909;52.202;9.876;2022-12-18T13:52:27;4.47;;;1.50;;
13672;SDS011;6909;52.202;9.876;2022-12-18T13:54:59;5.00;;;2.30;;
13672;SDS011;6909;52.202;9.876;2022-12-18T13:57:30;4.30;;;1.60;;
13672;SDS011;6909;52.202;9.876;2022-12-18T13:59:59;4.63;;;2.20;;
13672;SDS011;6909;52.202;9.876;2022-12-18T14:02:50;3.13;;;2.77;;
13672;SDS011;6909;52.202;9.876;2022-12-18T14:05:25;4.50;;;2.50;;
13672;SDS011;6909;52.202;9.876;2022-12-18T14:07:53;2.93;;;2.27;;
13672;SDS011;6909;52.202;9.876;2022-12-18T14:10:21;5.57;;;2.43;;
13672;SDS011;6909;52.202;9.876;2022-12-18T14:12:51;3.93;;;2.83;;
13672;SDS011;6909;52.202;9.876;2022-12-18T14:15:27;4.37;;;3.03;;
13672;SDS011;6909;52.202;9.876;2022-12-18T14:17:58;5.00;;;2.30;;
13672;SDS011;6909;52.202;9.876;2022-12-18T14:20:29;3.17;;;2.87;;
13672;SDS011;6909;52.202;9.876;2022-12-18T14:22:58;10.07;;;3.10;;
13672;SDS011;6909;52.202;9.876;2022-12-18T14:25:26;6.10;;;2.63;;
13672;SDS011;6909;52.202;9.876;2022-12-18T14:28:02;5.00;;;2.83;;
13672;SDS011;6909;52.202;9.876;2022-12-18T14:30:35;4.33;;;3.27;;
13672;SDS011;6909;52.202;9.876;2022-12-18T14:33:04;3.63;;;2.20;;
13672;SDS011;6909;52.202;9.876;2022-12-18T14:35:37;11.43;;;3.87;;
13672;SDS011;6909;52.202;9.876;2022-12-18T14:40:54;2.17;;;1.87;;
13672;SDS011;6909;52.202;9.876;2022-12-18T14:43:23;3.93;;;2.10;;
13672;SDS011;6909;52.202;9.876;2022-12-18T14:45:50;7.17;;;4.17;;
13672;SDS011;6909;52.202;9.876;2022-12-18T14:48:18;3.40;;;2.90;;
13672;SDS011;6909;52.202;9.876;2022-12-18T14:50:55;6.57;;;3.40;;
13672;SDS011;6909;52.202;9.876;2022-12-18T14:53:28;3.27;;;2.53;;
13672;SDS011;6909;52.202;9.876;2022-12-18T14:55:59;5.30;;;3.23;;
13672;SDS011;6909;52.202;9.876;2022-12-18T14:58:27;2.73;;;1.57;;
13672;SDS011;6909;52.202;9.876;2022-12-18T15:00:54;3.83;;;2.93;;
13672;SDS011;6909;52.202;9.876;2022-12-18T15:03:21;5.87;;;2.77;;
13672;SDS011;6909;52.202;9.876;2022-12-18T15:05:47;3.50;;;2.33;;
13672;SDS011;6909;52.202;9.876;2022-12-18T15:08:27;2.47;;;1.80;;
13672;SDS011;6909;52.202;9.876;2022-12-18T15:10:56;4.13;;;2.80;;
13672;SDS011;6909;52.202;9.876;2022-12-18T15:13:23;2.37;;;1.83;;
13672;SDS011;6909;52.202;9.876;2022-12-18T15:15:51;4.43;;;2.40;;
13672;SDS011;6909;52.202;9.876;2022-12-18T15:18:19;5.50;;;2.33;;
13672;SDS011;6909;52.202;9.876;2022-12-18T15:20:50;6.83;;;2.33;;
13672;SDS011;6909;52.202;9.876;2022-12-18T15:23:19;3.67;;;2.93;;
13672;SDS011;6909;52.202;9.876;2022-12-18T15:25:49;4.80;;;3.10;;
13672;SDS011;6909;52.202;9.876;2022-12-18T15:28:22;4.13;;;3.10;;
13672;SDS011;6909;52.202;9.876;2022-12-18T15:30:58;5.60;;;2.07;;
13672;SDS011;6909;52.202;9.876;2022-12-18T15:33:29;4.20;;;2.23;;
13672;SDS011;6909;52.202;9.876;2022-12-18T15:35:57;2.60;;;1.70;;
13672;SDS011;6909;52.202;9.876;2022-12-18T15:38:25;7.87;;;3.77;;
13672;SDS011;6909;52.202;9.876;2022-12-18T15:40:53;4.37;;;2.53;;
13672;SDS011;6909;52.202;9.876;2022-12-18T15:43:21;4.87;;;2.97;;
13672;SDS011;6909;52.202;9.876;2022-12-18T15:46:01;5.90;;;2.33;;
13672;SDS011;6909;52.202;9.876;2022-12-18T15:48:29;4.57;;;2.97;;
13672;SDS011;6909;52.202;9.876;2022-12-18T15:50:56;7.00;;;3.13;;
13672;SDS011;6909;52.202;9.876;2022-12-18T15:53:23;6.20;;;3.33;;
13672;SDS011;6909;52.202;9.876;2022-12-18T15:55:54;5.33;;;3.27;;
13672;SDS011;6909;52.202;9.876;2022-12-18T15:58:38;4.33;;;2.77;;
13672;SDS011;6909;52.202;9.876;2022-12-18T16:01:05;4.97;;;3.33;;
13672;SDS011;6909;52.202;9.876;2022-12-18T16:03:34;8.67;;;2.17;;
13672;SDS011;6909;52.202;9.876;2022-12-18T16:06:01;7.90;;;2.93;;
13672;SDS011;6909;52.202;9.876;2022-12-18T16:08:28;5.27;;;3.60;;
13672;SDS011;6909;52.202;9.876;2022-12-18T16:10:57;2.77;;;2.27;;
13672;SDS011;6909;52.202;9.876;2022-12-18T16:13:24;6.20;;;3.30;;
13672;SDS011;6909;52.202;9.876;2022-12-18T16:15:51;3.97;;;2.77;;
13672;SDS011;6909;52.202;9.876;2022-12-18T16:18:20;3.30;;;2.10;;
13672;SDS011;6909;52.202;9.876;2022-12-18T16:20:47;4.30;;;2.53;;
13672;SDS011;6909;52.202;9.876;2022-12-18T16:23:14;4.80;;;2.83;;
13672;SDS011;6909;52.202;9.876;2022-12-18T16:25:40;6.80;;;2.97;;
13672;SDS011;6909;52.202;9.876;2022-12-18T16:28:08;5.40;;;3.70;;
13672;SDS011;6909;52.202;9.876;2022-12-18T16:30:35;5.70;;;3.93;;
13672;SDS011;6909;52.202;9.876;2022-12-18T16:33:02;4.97;;;3.70;;
13672;SDS011;6909;52.202;9.876;2022-12-18T16:35:29;6.03;;;3.30;;
13672;SDS011;6909;52.202;9.876;2022-12-18T16:37:55;7.87;;;3.77;;
13672;SDS011;6909;52.202;9.876;2022-12-18T16:40:22;5.30;;;4.20;;
13672;SDS011;6909;52.202;9.876;2022-12-18T16:42:49;3.73;;;1.93;;
13672;SDS011;6909;52.202;9.876;2022-12-18T16:45:17;3.37;;;3.07;;
13672;SDS011;6909;52.202;9.876;2022-12-18T16:47:44;9.10;;;2.90;;
13672;SDS011;6909;52.202;9.876;2022-12-18T16:50:11;7.70;;;3.27;;
13672;SDS011;6909;52.202;9.876;2022-12-18T16:52:38;6.33;;;4.10;;
13672;SDS011;6909;52.202;9.876;2022-12-18T16:55:05;4.77;;;2.73;;
13672;SDS011;6909;52.202;9.876;2022-12-18T16:57:33;9.90;;;2.97;;
13672;SDS011;6909;52.202;9.876;2022-12-18T17:00:00;5.53;;;3.30;;
13672;SDS011;6909;52.202;9.876;2022-12-18T17:02:28;4.10;;;3.13;;
13672;SDS011;6909;52.202;9.876;2022-12-18T17:04:55;4.57;;;2.63;;
13672;SDS011;6909;52.202;9.876;2022-12-18T17:07:23;6.07;;;2.50;;
13672;SDS011;6909;52.202;9.876;2022-12-18T17:09:51;4.57;;;2.70;;
13672;SDS011;6909;52.202;9.876;2022-12-18T17:12:18;6.47;;;4.03;;
13672;SDS011;6909;52.202;9.876;2022-12-18T17:14:44;4.30;;;2.60;;
13672;SDS011;6909;52.202;9.876;2022-12-18T17:17:11;3.63;;;2.30;;
13672;SDS011;6909;52.202;9.876;2022-12-18T17:19:39;7.37;;;4.27;;
13672;SDS011;6909;52.202;9.876;2022-12-18T17:22:06;7.30;;;3.67;;
13672;SDS011;6909;52.202;9.876;2022-12-18T17:24:33;9.87;;;3.97;;
13672;SDS011;6909;52.202;9.876;2022-12-18T17:27:00;4.73;;;3.23;;
13672;SDS011;6909;52.202;9.876;2022-12-18T17:29:27;5.43;;;2.70;;
13672;SDS011;6909;52.202;9.876;2022-12-18T17:31:54;5.63;;;3.20;;
13672;SDS011;6909;52.202;9.876;2022-12-18T17:34:20;7.73;;;2.37;;
13672;SDS011;6909;52.202;9.876;2022-12-18T17:36:48;10.87;;;3.67;;
13672;SDS011;6909;52.202;9.876;2022-12-18T17:39:16;3.83;;;2.70;;
13672;SDS011;6909;52.202;9.876;2022-12-18T17:41:45;2.23;;;2.03;;
13672;SDS011;6909;52.202;9.876;2022-12-18T17:44:12;1.73;;;1.33;;
13672;SDS011;6909;52.202;9.876;2022-12-18T17:46:39;1.93;;;1.73;;
13672;SDS011;6909;52.202;9.876;2022-12-18T17:49:06;1.53;;;0.97;;
13672;SDS011;6909;52.202;9.876;2022-12-18T17:51:33;0.60;;;0.60;;
13672;SDS011;6909;52.202;9.876;2022-12-18T17:54:01;2.27;;;0.67;;
13672;SDS011;6909;52.202;9.876;2022-12-18T17:56:28;0.30;;;0.30;;
13672;SDS011;6909;52.202;9.876;2022-12-18T17:58:54;0.90;;;0.77;;
13672;SDS011;6909;52.202;9.876;2022-12-18T18:01:22;1.40;;;0.57;;
13672;SDS011;6909;52.202;9.876;2022-12-18T18:03:50;0.70;;;0.70;;
13672;SDS011;6909;52.202;9.876;2022-12-18T18:06:17;1.40;;;1.03;;
13672;SDS011;6909;52.202;9.876;2022-12-18T18:08:44;0.73;;;0.73;;
13672;SDS011;6909;52.202;9.876;2022-12-18T18:11:13;1.03;;;1.00;;